Portada
METAR-TAF:

METAR-TAF

Aeroports :

Valença, França

latitud: 44-54-58N, longitud: 4-58-06E, altitud: 160 m

Observació

L'informe es va fer fa 31 minuts, a les 07:30 UTC
Vent 14 kt del Nord
Temperatura 19°C
Humitat 56%
Pressió 1018 hPa
Visibilitat 10 km o més
sense núvols per sota de 1500 mi sense presència de cumulonimbus.

METAR: LFLU 250730Z AUTO 36014KT CAVOK 19/10 Q1018

Hora: 10:01 (08:01 UTC)


TAF: manca

Observacions i pronòstics meteorològics de més de 4000 aeroports (METAR i TAF).

Les estacions disponibles són els punts grocs i vermells al mapa.

Posi el ratolí al punt desitjat per veure el nom de l'estació.

Feu clic per veure les observacions i els pronòstics meteorològics.

Per canviar el mapa: feu clic els botons verds amb una creu de color negre per apropar; al botó verd amb un guió per allunyar la imatge; o en les fletxes verdes per a mapes adjacents.


METAR-TAF: